Terminal Aerodrome Forecast
Issued by NWS Grand Forks, ND

Home | Current Version | Previous Version | Graphics & Text | Print | Product List | Glossary On
Versions: 1 2 3 4 5 6 7 8 9 10 11 12 13 14 15
916
FTUS43 KFGF 301120
TAFGFK
TAF
KGFK 301120Z 3012/0112 35011KT 4SM -SN OVC008
      TEMPO 3012/3016 2SM -SN BR
     FM302200 35012KT 6SM -SN OVC010
     FM010200 35011KT 5SM -FZDZ OVC010
     FM010600 35010KT 4SM -FZDZ OVC008=

USA.gov is the U.S. government's official web portal to all federal, state and local government web resources and services.